Douglas Murphy — WDG2017 — position and weather

sailwx.info

Track history (hours):
 
Tides and Currents Weather Stations Pressure Air Temp Water Temp Dewpoint Dewpoint Depression Visibility Wind Speed Wind Dir Waves Ship Positions

Douglas Murphy

Owner: D&S Marine Service, LLC M/V Douglas Murphy, Gray, LA. More information available from US FCC via Universal Licensing System and Coast Guard Vessel Documentation Center.

Last reported at 2018-Jul-15 12:13 UTC. Time now 2018-Jul-15 19:16 UTC.
Position N 29°46' W 095°05'.

Length 24 m; draft 3 m.

Type: . MMSI: 367511270.

Date/timePositionNaut miles runAvg speedWind from/ knotsBaromVisibWave heightAir tempDewpointWater temp
2018-Jul-15 12:13N 29°46' W 095°05'1 5.0
2018-Jul-15 11:59N 29°47' W 095°05'1 0.9
2018-Jul-15 11:13N 29°46' W 095°05'1 3.8
2018-Jul-15 10:59N 29°45' W 095°04'2 4.7
2018-Jul-15 10:28N 29°44' W 095°02'2 4.3
2018-Jul-15 10:00N 29°42' W 095°01'2 4.3
2018-Jul-15 09:30N 29°41' W 094°59'2 4.6
2018-Jul-15 09:00N 29°39' W 094°58'2 3.7
2018-Jul-15 08:30N 29°37' W 094°58'3 5.1
2018-Jul-15 08:00N 29°37' W 095°01'0 0.5
2018-Jul-15 07:30N 29°37' W 095°01'0 0.0
2018-Jul-15 07:00N 29°37' W 095°01'0 0.0
2018-Jul-15 06:30N 29°37' W 095°01'0 0.1
2018-Jul-15 06:00N 29°37' W 095°02'0 0.0
2018-Jul-15 05:30N 29°37' W 095°02'0 0.0
2018-Jul-15 05:00N 29°37' W 095°02'0 0.0
2018-Jul-15 04:30N 29°37' W 095°02'0 0.0
2018-Jul-15 04:00N 29°37' W 095°02'0 0.0
2018-Jul-15 03:30N 29°37' W 095°02'0 0.0
2018-Jul-15 03:00N 29°37' W 095°02'0 0.0
2018-Jul-15 02:30N 29°37' W 095°02'0 0.0
2018-Jul-15 02:00N 29°37' W 095°02'0 0.0
2018-Jul-15 01:30N 29°37' W 095°02'0 0.0
2018-Jul-15 01:00N 29°37' W 095°02'0 0.0
2018-Jul-15 00:30N 29°37' W 095°02'0 0.0
2018-Jul-15 00:00N 29°37' W 095°02'0 0.0
2018-Jul-14 23:30N 29°37' W 095°02'0 0.0
2018-Jul-14 23:00N 29°37' W 095°02'0 0.0
2018-Jul-14 22:30N 29°37' W 095°02'0 0.0
2018-Jul-14 22:00N 29°37' W 095°02'0 0.0
2018-Jul-14 21:30N 29°37' W 095°02'0 0.0
2018-Jul-14 21:00N 29°37' W 095°02'0 0.0
2018-Jul-14 20:30N 29°37' W 095°02'0 0.0
2018-Jul-14 20:00N 29°37' W 095°02'0 0.0
2018-Jul-14 19:30N 29°37' W 095°02'0 0.0
2018-Jul-14 19:00N 29°37' W 095°02'0 0.0
2018-Jul-14 18:30N 29°37' W 095°02'0 0.0
2018-Jul-14 18:00N 29°37' W 095°02'0 0.0
2018-Jul-14 17:30N 29°37' W 095°02'0 0.0
2018-Jul-14 17:00N 29°37' W 095°02'0 0.0
2018-Jul-14 16:30N 29°37' W 095°02'0 0.0
2018-Jul-14 16:00N 29°37' W 095°02'0 0.0
2018-Jul-14 15:30N 29°37' W 095°02'0 0.0
2018-Jul-14 15:00N 29°37' W 095°02'0 0.0
2018-Jul-14 14:30N 29°37' W 095°02'0 0.1
2018-Jul-14 13:30N 29°37' W 095°01'2 3.5
2018-Jul-14 13:00N 29°37' W 094°59'2 3.7
2018-Jul-14 12:30N 29°38' W 094°58'3 6.6
2018-Jul-14 12:00N 29°41' W 094°59'3 5.1
2018-Jul-14 11:30N 29°43' W 095°01'3 6.9
2018-Jul-14 11:00N 29°45' W 095°04'2 3.6
2018-Jul-14 10:26N 29°47' W 095°05'1 1.3
2018-Jul-14 09:59N 29°47' W 095°06'0 0.1
2018-Jul-14 09:28N 29°47' W 095°06'0 0.2
2018-Jul-14 08:21N 29°47' W 095°05'1 0.3
2018-Jul-14 04:12N 29°47' W 095°04'2 4.7
2018-Jul-14 03:49N 29°46' W 095°05'1 1.3
2018-Jul-14 03:21N 29°46' W 095°06'0 0.0
2018-Jul-14 02:45N 29°46' W 095°06'0 0.0
2018-Jul-14 02:28N 29°46' W 095°06'1 0.3
2018-Jul-14 00:23N 29°46' W 095°05'0 0.6
2018-Jul-13 23:40N 29°45' W 095°06'1 0.1
2018-Jul-13 19:19N 29°46' W 095°05'1 0.5
2018-Jul-13 18:20N 29°45' W 095°06'1 1.5
2018-Jul-13 17:48N 29°45' W 095°06'1 0.7
2018-Jul-13 15:55N 29°46' W 095°05'0 0.1
2018-Jul-13 14:00N 29°46' W 095°05'1 0.6
2018-Jul-13 11:27N 29°47' W 095°04'2 1.3
2018-Jul-13 10:06N 29°46' W 095°05'1 6.3
2018-Jul-13 10:00N 29°46' W 095°05'0 0.7
2018-Jul-13 09:28N 29°46' W 095°04'2 1.3
2018-Jul-13 07:47N 29°46' W 095°07'1 2.3
2018-Jul-13 07:25N 29°45' W 095°06'2 3.5
2018-Jul-13 06:49N 29°47' W 095°04'0 0.3
2018-Jul-13 06:05N 29°47' W 095°04'0 0.8
2018-Jul-13 05:50N 29°47' W 095°04'2 5.2
2018-Jul-13 05:25N 29°46' W 095°06'1 1.0
2018-Jul-13 04:51N 29°46' W 095°06'1 0.8
2018-Jul-13 03:39N 29°45' W 095°06'1 2.2
2018-Jul-13 03:25N 29°46' W 095°06'0 0.0
2018-Jul-13 00:41N 29°46' W 095°06'0 2.1
2018-Jul-13 00:30N 29°46' W 095°05'1 0.6
2018-Jul-12 22:59N 29°46' W 095°06'0 0.4
2018-Jul-12 22:30N 29°46' W 095°07'1 0.5
2018-Jul-12 20:35N 29°45' W 095°06'0 4.5
2018-Jul-12 20:29N 29°46' W 095°05'0 0.1
2018-Jul-12 17:19N 29°46' W 095°05'0 0.1
2018-Jul-12 15:44N 29°46' W 095°06'0 1.2
2018-Jul-12 15:25N 29°46' W 095°06'1 0.7
2018-Jul-12 14:23N 29°45' W 095°06'0 0.0
2018-Jul-12 14:00N 29°45' W 095°06'0 0.0
2018-Jul-12 13:30N 29°45' W 095°06'0 0.0
2018-Jul-12 13:00N 29°45' W 095°06'0 0.0
2018-Jul-12 12:29N 29°45' W 095°06'0 0.0
2018-Jul-12 12:00N 29°45' W 095°06'0 0.0
2018-Jul-12 11:29N 29°45' W 095°06'0 0.0
2018-Jul-12 11:00N 29°45' W 095°06'0 0.0
2018-Jul-12 10:23N 29°45' W 095°06'0 0.0
2018-Jul-12 10:00N 29°45' W 095°06'0 0.0
2018-Jul-12 09:30N 29°45' W 095°06'0 0.0
2018-Jul-12 09:00N 29°45' W 095°06'0 0.0
2018-Jul-12 08:30N 29°45' W 095°06'0 0.0
2018-Jul-12 07:59N 29°45' W 095°06'0 0.0
2018-Jul-12 07:30N 29°45' W 095°06'0 0.2
2018-Jul-12 06:59N 29°45' W 095°06'1 1.7
2018-Jul-12 06:30N 29°46' W 095°06'0 0.1
2018-Jul-12 05:21N 29°45' W 095°06'1 0.2
2018-Jul-12 01:22N 29°46' W 095°06'0 0.0
2018-Jul-12 00:06N 29°46' W 095°06'0 0.0
2018-Jul-11 20:09N 29°46' W 095°06'0 0.0
2018-Jul-11 20:00N 29°46' W 095°06'0 0.0
2018-Jul-11 19:30N 29°46' W 095°06'0 0.0
2018-Jul-11 12:30N 29°46' W 095°06'0 0.0
2018-Jul-11 11:57N 29°46' W 095°06'0 0.0
2018-Jul-11 10:49N 29°46' W 095°06'0 0.0
2018-Jul-11 10:18N 29°46' W 095°06'0 0.0
2018-Jul-11 09:01N 29°46' W 095°06'0 0.0
2018-Jul-11 08:55N 29°46' W 095°06'0 0.0
2018-Jul-11 08:28N 29°46' W 095°06'0 0.0
2018-Jul-11 07:57N 29°46' W 095°06'0 0.0
2018-Jul-11 07:30N 29°46' W 095°06'0 0.0
2018-Jul-11 06:47N 29°46' W 095°06'0 0.0
2018-Jul-11 06:21N 29°46' W 095°06'0 0.0
2018-Jul-11 06:00N 29°46' W 095°06'0 0.0
2018-Jul-11 05:27N 29°46' W 095°06'0 0.0
2018-Jul-11 05:00N 29°46' W 095°06'0 0.0
2018-Jul-11 04:28N 29°46' W 095°06'0 0.0
2018-Jul-11 03:57N 29°46' W 095°06'0 0.0
2018-Jul-11 03:26N 29°46' W 095°06'0 0.0
2018-Jul-11 02:35N 29°46' W 095°06'0 0.0
2018-Jul-11 02:21N 29°46' W 095°06'0 0.0
2018-Jul-11 01:57N 29°46' W 095°06'0 0.0
2018-Jul-11 01:30N 29°46' W 095°06'0 0.0
2018-Jul-11 00:59N 29°46' W 095°06'0 0.0
2018-Jul-11 00:29N 29°46' W 095°06'0 0.0
2018-Jul-10 23:59N 29°46' W 095°06'0 0.0
2018-Jul-10 23:30N 29°46' W 095°06'0 0.0
2018-Jul-10 22:40N 29°46' W 095°06'0 0.0
2018-Jul-10 22:30N 29°46' W 095°06'1 1.3
2018-Jul-10 21:57N 29°45' W 095°06'0 0.2
2018-Jul-10 21:06N 29°46' W 095°06'0 0.0
2018-Jul-10 20:36N 29°46' W 095°06'3 0.4
2018-Jul-10 14:48N 29°44' W 095°08'2 6.4
2018-Jul-10 14:30N 29°45' W 095°10'4 5.6
2018-Jul-10 13:53N 29°44' W 095°14'0 0.1
2018-Jul-10 13:22N 29°44' W 095°14'1 2.4
2018-Jul-10 12:59N 29°44' W 095°13'2 4.9
2018-Jul-10 12:30N 29°45' W 095°10'2 4.5
2018-Jul-10 12:00N 29°44' W 095°08'2 4.8
2018-Jul-10 11:30N 29°45' W 095°06'0 0.3
2018-Jul-10 10:58N 29°45' W 095°06'0 0.0
2018-Jul-10 10:27N 29°45' W 095°06'0 0.1
2018-Jul-10 09:56N 29°45' W 095°06'1 2.1
2018-Jul-10 09:24N 29°46' W 095°07'0 0.2
2018-Jul-10 08:59N 29°46' W 095°07'1 2.0
2018-Jul-10 08:28N 29°45' W 095°06'0 0.1
2018-Jul-10 07:55N 29°45' W 095°06'0 0.0
2018-Jul-10 07:27N 29°45' W 095°06'0 0.3
2018-Jul-10 06:51N 29°45' W 095°06'0 0.0
2018-Jul-10 06:29N 29°45' W 095°06'0 0.5
2018-Jul-10 06:00N 29°45' W 095°06'2 4.0
2018-Jul-10 05:28N 29°47' W 095°04'0 0.5
2018-Jul-10 04:52N 29°47' W 095°04'1 3.6
2018-Jul-10 04:29N 29°46' W 095°05'0 0.1
2018-Jul-10 03:58N 29°46' W 095°05'0 0.0
2018-Jul-10 03:30N 29°46' W 095°05'0 0.0
2018-Jul-10 02:56N 29°46' W 095°05'0 0.0
2018-Jul-10 02:23N 29°46' W 095°05'1 0.4
2018-Jul-10 00:52N 29°45' W 095°06'1 0.2
2018-Jul-09 19:56N 29°46' W 095°07'0 0.0
2018-Jul-09 19:26N 29°46' W 095°07'0 0.0
2018-Jul-09 18:33N 29°46' W 095°07'1 0.8
2018-Jul-09 17:05N 29°46' W 095°05'2 0.1
2018-Jul-08 12:02N 29°47' W 095°04'0 3.2
2018-Jul-08 11:54N 29°47' W 095°04'2 0.5
2018-Jul-08 07:47N 29°45' W 095°06'1 1.9
2018-Jul-08 07:22N 29°46' W 095°06'0 0.6
2018-Jul-08 07:00N 29°46' W 095°06'1 0.2
2018-Jul-08 02:51N 29°46' W 095°06'3 0.1
2018-Jul-06 17:32N 29°44' W 095°08'0 2.0
2018-Jul-06 17:29N 29°44' W 095°08'2 2.8
2018-Jul-06 16:56N 29°45' W 095°06'1 2.3
2018-Jul-06 16:30N 29°45' W 095°06'0 0.0
2018-Jul-06 15:28N 29°45' W 095°06'0 0.0
2018-Jul-06 14:58N 29°45' W 095°06'0 0.6
2018-Jul-06 14:23N 29°46' W 095°06'0 0.0
2018-Jul-06 13:54N 29°46' W 095°06'0 0.0
2018-Jul-06 13:30N 29°46' W 095°06'0 0.0
2018-Jul-06 13:00N 29°46' W 095°06'0 0.0
2018-Jul-06 12:23N 29°46' W 095°06'0 0.0
2018-Jul-06 11:47N 29°46' W 095°06'0 0.8
2018-Jul-06 11:30N 29°46' W 095°05'0 0.6
2018-Jul-06 10:59N 29°45' W 095°06'0 0.0
2018-Jul-06 10:10N 29°45' W 095°06'0 0.0
2018-Jul-06 10:01N 29°45' W 095°06'0 0.0
2018-Jul-06 09:30N 29°45' W 095°06'0 0.0
2018-Jul-06 08:23N 29°45' W 095°06'0 0.0
2018-Jul-06 07:56N 29°45' W 095°06'0 0.0
2018-Jul-06 07:18N 29°45' W 095°06'0 0.0
2018-Jul-06 06:54N 29°45' W 095°06'0 0.0
2018-Jul-06 06:13N 29°45' W 095°06'0 0.0
2018-Jul-06 06:00N 29°45' W 095°06'0 0.0
2018-Jul-06 05:30N 29°45' W 095°06'0 0.0
2018-Jul-06 05:00N 29°45' W 095°06'0 0.0
2018-Jul-06 04:29N 29°45' W 095°06'0 0.0
2018-Jul-06 03:56N 29°45' W 095°06'0 0.0
2018-Jul-06 03:25N 29°45' W 095°06'0 0.0
2018-Jul-06 03:00N 29°45' W 095°06'0 0.0
2018-Jul-06 02:29N 29°45' W 095°06'0 0.0
2018-Jul-06 01:41N 29°45' W 095°06'0 0.0
2018-Jul-06 01:30N 29°45' W 095°06'0 0.0
2018-Jul-06 00:59N 29°45' W 095°06'0 0.0
2018-Jul-05 22:52N 29°45' W 095°06'0 0.0
2018-Jul-05 21:19N 29°45' W 095°06'0 0.0
2018-Jul-05 20:59N 29°45' W 095°06'0 0.0
2018-Jul-05 15:44N 29°45' W 095°06'0 0.0
2018-Jul-05 14:23N 29°45' W 095°06'0 0.0
2018-Jul-05 13:31N 29°45' W 095°06'0 0.0
2018-Jul-05 13:01N 29°45' W 095°06'0 0.0
2018-Jul-05 12:30N 29°45' W 095°06'  
Track history (hours):
 
Tides and Currents Weather Stations Pressure Air Temp Water Temp Dewpoint Dewpoint Depression Visibility Wind Speed Wind Dir Waves Ship Positions

Douglas Murphy

Owner: D&S Marine Service, LLC M/V Douglas Murphy, Gray, LA. More information available from US FCC via Universal Licensing System and Coast Guard Vessel Documentation Center.

Last reported at 2018-Jul-15 12:13 UTC. Time now 2018-Jul-15 19:16 UTC.
Position N 29°46' W 095°05'.

Length 24 m; draft 3 m.

Type: . MMSI: 367511270.

Date/timePositionNaut miles runAvg speedWind from/ knotsBaromVisibWave heightAir tempDewpointWater temp
2018-Jul-15 12:13N 29°46' W 095°05'1 5.0
2018-Jul-15 11:59N 29°47' W 095°05'1 0.9
2018-Jul-15 11:13N 29°46' W 095°05'1 3.8
2018-Jul-15 10:59N 29°45' W 095°04'2 4.7
2018-Jul-15 10:28N 29°44' W 095°02'2 4.3
2018-Jul-15 10:00N 29°42' W 095°01'2 4.3
2018-Jul-15 09:30N 29°41' W 094°59'2 4.6
2018-Jul-15 09:00N 29°39' W 094°58'2 3.7
2018-Jul-15 08:30N 29°37' W 094°58'3 5.1
2018-Jul-15 08:00N 29°37' W 095°01'0 0.5
2018-Jul-15 07:30N 29°37' W 095°01'0 0.0
2018-Jul-15 07:00N 29°37' W 095°01'0 0.0
2018-Jul-15 06:30N 29°37' W 095°01'0 0.1
2018-Jul-15 06:00N 29°37' W 095°02'0 0.0
2018-Jul-15 05:30N 29°37' W 095°02'0 0.0
2018-Jul-15 05:00N 29°37' W 095°02'0 0.0
2018-Jul-15 04:30N 29°37' W 095°02'0 0.0
2018-Jul-15 04:00N 29°37' W 095°02'0 0.0
2018-Jul-15 03:30N 29°37' W 095°02'0 0.0
2018-Jul-15 03:00N 29°37' W 095°02'0 0.0
2018-Jul-15 02:30N 29°37' W 095°02'0 0.0
2018-Jul-15 02:00N 29°37' W 095°02'0 0.0
2018-Jul-15 01:30N 29°37' W 095°02'0 0.0
2018-Jul-15 01:00N 29°37' W 095°02'0 0.0
2018-Jul-15 00:30N 29°37' W 095°02'0 0.0
2018-Jul-15 00:00N 29°37' W 095°02'0 0.0
2018-Jul-14 23:30N 29°37' W 095°02'0 0.0
2018-Jul-14 23:00N 29°37' W 095°02'0 0.0
2018-Jul-14 22:30N 29°37' W 095°02'0 0.0
2018-Jul-14 22:00N 29°37' W 095°02'0 0.0
2018-Jul-14 21:30N 29°37' W 095°02'0 0.0
2018-Jul-14 21:00N 29°37' W 095°02'0 0.0
2018-Jul-14 20:30N 29°37' W 095°02'0 0.0
2018-Jul-14 20:00N 29°37' W 095°02'0 0.0
2018-Jul-14 19:30N 29°37' W 095°02'0 0.0
2018-Jul-14 19:00N 29°37' W 095°02'0 0.0
2018-Jul-14 18:30N 29°37' W 095°02'0 0.0
2018-Jul-14 18:00N 29°37' W 095°02'0 0.0
2018-Jul-14 17:30N 29°37' W 095°02'0 0.0
2018-Jul-14 17:00N 29°37' W 095°02'0 0.0
2018-Jul-14 16:30N 29°37' W 095°02'0 0.0
2018-Jul-14 16:00N 29°37' W 095°02'0 0.0
2018-Jul-14 15:30N 29°37' W 095°02'0 0.0
2018-Jul-14 15:00N 29°37' W 095°02'0 0.0
2018-Jul-14 14:30N 29°37' W 095°02'0 0.1
2018-Jul-14 13:30N 29°37' W 095°01'2 3.5
2018-Jul-14 13:00N 29°37' W 094°59'2 3.7
2018-Jul-14 12:30N 29°38' W 094°58'3 6.6
2018-Jul-14 12:00N 29°41' W 094°59'3 5.1
2018-Jul-14 11:30N 29°43' W 095°01'3 6.9
2018-Jul-14 11:00N 29°45' W 095°04'2 3.6
2018-Jul-14 10:26N 29°47' W 095°05'1 1.3
2018-Jul-14 09:59N 29°47' W 095°06'0 0.1
2018-Jul-14 09:28N 29°47' W 095°06'0 0.2
2018-Jul-14 08:21N 29°47' W 095°05'1 0.3
2018-Jul-14 04:12N 29°47' W 095°04'2 4.7
2018-Jul-14 03:49N 29°46' W 095°05'1 1.3
2018-Jul-14 03:21N 29°46' W 095°06'0 0.0
2018-Jul-14 02:45N 29°46' W 095°06'0 0.0
2018-Jul-14 02:28N 29°46' W 095°06'1 0.3
2018-Jul-14 00:23N 29°46' W 095°05'0 0.6
2018-Jul-13 23:40N 29°45' W 095°06'1 0.1
2018-Jul-13 19:19N 29°46' W 095°05'1 0.5
2018-Jul-13 18:20N 29°45' W 095°06'1 1.5
2018-Jul-13 17:48N 29°45' W 095°06'1 0.7
2018-Jul-13 15:55N 29°46' W 095°05'0 0.1
2018-Jul-13 14:00N 29°46' W 095°05'1 0.6
2018-Jul-13 11:27N 29°47' W 095°04'2 1.3
2018-Jul-13 10:06N 29°46' W 095°05'1 6.3
2018-Jul-13 10:00N 29°46' W 095°05'0 0.7
2018-Jul-13 09:28N 29°46' W 095°04'2 1.3
2018-Jul-13 07:47N 29°46' W 095°07'1 2.3
2018-Jul-13 07:25N 29°45' W 095°06'2 3.5
2018-Jul-13 06:49N 29°47' W 095°04'0 0.3
2018-Jul-13 06:05N 29°47' W 095°04'0 0.8
2018-Jul-13 05:50N 29°47' W 095°04'2 5.2
2018-Jul-13 05:25N 29°46' W 095°06'1 1.0
2018-Jul-13 04:51N 29°46' W 095°06'1 0.8
2018-Jul-13 03:39N 29°45' W 095°06'1 2.2
2018-Jul-13 03:25N 29°46' W 095°06'0 0.0
2018-Jul-13 00:41N 29°46' W 095°06'0 2.1
2018-Jul-13 00:30N 29°46' W 095°05'1 0.6
2018-Jul-12 22:59N 29°46' W 095°06'0 0.4
2018-Jul-12 22:30N 29°46' W 095°07'1 0.5
2018-Jul-12 20:35N 29°45' W 095°06'0 4.5
2018-Jul-12 20:29N 29°46' W 095°05'0 0.1
2018-Jul-12 17:19N 29°46' W 095°05'0 0.1
2018-Jul-12 15:44N 29°46' W 095°06'0 1.2
2018-Jul-12 15:25N 29°46' W 095°06'1 0.7
2018-Jul-12 14:23N 29°45' W 095°06'0 0.0
2018-Jul-12 14:00N 29°45' W 095°06'0 0.0
2018-Jul-12 13:30N 29°45' W 095°06'0 0.0
2018-Jul-12 13:00N 29°45' W 095°06'0 0.0
2018-Jul-12 12:29N 29°45' W 095°06'0 0.0
2018-Jul-12 12:00N 29°45' W 095°06'0 0.0
2018-Jul-12 11:29N 29°45' W 095°06'0 0.0
2018-Jul-12 11:00N 29°45' W 095°06'0 0.0
2018-Jul-12 10:23N 29°45' W 095°06'0 0.0
2018-Jul-12 10:00N 29°45' W 095°06'0 0.0
2018-Jul-12 09:30N 29°45' W 095°06'0 0.0
2018-Jul-12 09:00N 29°45' W 095°06'0 0.0
2018-Jul-12 08:30N 29°45' W 095°06'0 0.0
2018-Jul-12 07:59N 29°45' W 095°06'0 0.0
2018-Jul-12 07:30N 29°45' W 095°06'0 0.2
2018-Jul-12 06:59N 29°45' W 095°06'1 1.7
2018-Jul-12 06:30N 29°46' W 095°06'0 0.1
2018-Jul-12 05:21N 29°45' W 095°06'1 0.2
2018-Jul-12 01:22N 29°46' W 095°06'0 0.0
2018-Jul-12 00:06N 29°46' W 095°06'0 0.0
2018-Jul-11 20:09N 29°46' W 095°06'0 0.0
2018-Jul-11 20:00N 29°46' W 095°06'0 0.0
2018-Jul-11 19:30N 29°46' W 095°06'0 0.0
2018-Jul-11 12:30N 29°46' W 095°06'0 0.0
2018-Jul-11 11:57N 29°46' W 095°06'0 0.0
2018-Jul-11 10:49N 29°46' W 095°06'0 0.0
2018-Jul-11 10:18N 29°46' W 095°06'0 0.0
2018-Jul-11 09:01N 29°46' W 095°06'0 0.0
2018-Jul-11 08:55N 29°46' W 095°06'0 0.0
2018-Jul-11 08:28N 29°46' W 095°06'0 0.0
2018-Jul-11 07:57N 29°46' W 095°06'0 0.0
2018-Jul-11 07:30N 29°46' W 095°06'0 0.0
2018-Jul-11 06:47N 29°46' W 095°06'0 0.0
2018-Jul-11 06:21N 29°46' W 095°06'0 0.0
2018-Jul-11 06:00N 29°46' W 095°06'0 0.0
2018-Jul-11 05:27N 29°46' W 095°06'0 0.0
2018-Jul-11 05:00N 29°46' W 095°06'0 0.0
2018-Jul-11 04:28N 29°46' W 095°06'0 0.0
2018-Jul-11 03:57N 29°46' W 095°06'0 0.0
2018-Jul-11 03:26N 29°46' W 095°06'0 0.0
2018-Jul-11 02:35N 29°46' W 095°06'0 0.0
2018-Jul-11 02:21N 29°46' W 095°06'0 0.0
2018-Jul-11 01:57N 29°46' W 095°06'0 0.0
2018-Jul-11 01:30N 29°46' W 095°06'0 0.0
2018-Jul-11 00:59N 29°46' W 095°06'0 0.0
2018-Jul-11 00:29N 29°46' W 095°06'0 0.0
2018-Jul-10 23:59N 29°46' W 095°06'0 0.0
2018-Jul-10 23:30N 29°46' W 095°06'0 0.0
2018-Jul-10 22:40N 29°46' W 095°06'0 0.0
2018-Jul-10 22:30N 29°46' W 095°06'1 1.3
2018-Jul-10 21:57N 29°45' W 095°06'0 0.2
2018-Jul-10 21:06N 29°46' W 095°06'0 0.0
2018-Jul-10 20:36N 29°46' W 095°06'3 0.4
2018-Jul-10 14:48N 29°44' W 095°08'2 6.4
2018-Jul-10 14:30N 29°45' W 095°10'4 5.6
2018-Jul-10 13:53N 29°44' W 095°14'0 0.1
2018-Jul-10 13:22N 29°44' W 095°14'1 2.4
2018-Jul-10 12:59N 29°44' W 095°13'2 4.9
2018-Jul-10 12:30N 29°45' W 095°10'2 4.5
2018-Jul-10 12:00N 29°44' W 095°08'2 4.8
2018-Jul-10 11:30N 29°45' W 095°06'0 0.3
2018-Jul-10 10:58N 29°45' W 095°06'0 0.0
2018-Jul-10 10:27N 29°45' W 095°06'0 0.1
2018-Jul-10 09:56N 29°45' W 095°06'1 2.1
2018-Jul-10 09:24N 29°46' W 095°07'0 0.2
2018-Jul-10 08:59N 29°46' W 095°07'1 2.0
2018-Jul-10 08:28N 29°45' W 095°06'0 0.1
2018-Jul-10 07:55N 29°45' W 095°06'0 0.0
2018-Jul-10 07:27N 29°45' W 095°06'0 0.3
2018-Jul-10 06:51N 29°45' W 095°06'0 0.0
2018-Jul-10 06:29N 29°45' W 095°06'0 0.5
2018-Jul-10 06:00N 29°45' W 095°06'2 4.0
2018-Jul-10 05:28N 29°47' W 095°04'0 0.5
2018-Jul-10 04:52N 29°47' W 095°04'1 3.6
2018-Jul-10 04:29N 29°46' W 095°05'0 0.1
2018-Jul-10 03:58N 29°46' W 095°05'0 0.0
2018-Jul-10 03:30N 29°46' W 095°05'0 0.0
2018-Jul-10 02:56N 29°46' W 095°05'0 0.0
2018-Jul-10 02:23N 29°46' W 095°05'1 0.4
2018-Jul-10 00:52N 29°45' W 095°06'1 0.2
2018-Jul-09 19:56N 29°46' W 095°07'0 0.0
2018-Jul-09 19:26N 29°46' W 095°07'0 0.0
2018-Jul-09 18:33N 29°46' W 095°07'1 0.8
2018-Jul-09 17:05N 29°46' W 095°05'2 0.1
2018-Jul-08 12:02N 29°47' W 095°04'0 3.2
2018-Jul-08 11:54N 29°47' W 095°04'2 0.5
2018-Jul-08 07:47N 29°45' W 095°06'1 1.9
2018-Jul-08 07:22N 29°46' W 095°06'0 0.6
2018-Jul-08 07:00N 29°46' W 095°06'1 0.2
2018-Jul-08 02:51N 29°46' W 095°06'3 0.1
2018-Jul-06 17:32N 29°44' W 095°08'0 2.0
2018-Jul-06 17:29N 29°44' W 095°08'2 2.8
2018-Jul-06 16:56N 29°45' W 095°06'1 2.3
2018-Jul-06 16:30N 29°45' W 095°06'0 0.0
2018-Jul-06 15:28N 29°45' W 095°06'0 0.0
2018-Jul-06 14:58N 29°45' W 095°06'0 0.6
2018-Jul-06 14:23N 29°46' W 095°06'0 0.0
2018-Jul-06 13:54N 29°46' W 095°06'0 0.0
2018-Jul-06 13:30N 29°46' W 095°06'0 0.0
2018-Jul-06 13:00N 29°46' W 095°06'0 0.0
2018-Jul-06 12:23N 29°46' W 095°06'0 0.0
2018-Jul-06 11:47N 29°46' W 095°06'0 0.8
2018-Jul-06 11:30N 29°46' W 095°05'0 0.6
2018-Jul-06 10:59N 29°45' W 095°06'0 0.0
2018-Jul-06 10:10N 29°45' W 095°06'0 0.0
2018-Jul-06 10:01N 29°45' W 095°06'0 0.0
2018-Jul-06 09:30N 29°45' W 095°06'0 0.0
2018-Jul-06 08:23N 29°45' W 095°06'0 0.0
2018-Jul-06 07:56N 29°45' W 095°06'0 0.0
2018-Jul-06 07:18N 29°45' W 095°06'0 0.0
2018-Jul-06 06:54N 29°45' W 095°06'0 0.0
2018-Jul-06 06:13N 29°45' W 095°06'0 0.0
2018-Jul-06 06:00N 29°45' W 095°06'0 0.0
2018-Jul-06 05:30N 29°45' W 095°06'0 0.0
2018-Jul-06 05:00N 29°45' W 095°06'0 0.0
2018-Jul-06 04:29N 29°45' W 095°06'0 0.0
2018-Jul-06 03:56N 29°45' W 095°06'0 0.0
2018-Jul-06 03:25N 29°45' W 095°06'0 0.0
2018-Jul-06 03:00N 29°45' W 095°06'0 0.0
2018-Jul-06 02:29N 29°45' W 095°06'0 0.0
2018-Jul-06 01:41N 29°45' W 095°06'0 0.0
2018-Jul-06 01:30N 29°45' W 095°06'0 0.0
2018-Jul-06 00:59N 29°45' W 095°06'0 0.0
2018-Jul-05 22:52N 29°45' W 095°06'0 0.0
2018-Jul-05 21:19N 29°45' W 095°06'0 0.0
2018-Jul-05 20:59N 29°45' W 095°06'0 0.0
2018-Jul-05 15:44N 29°45' W 095°06'0 0.0
2018-Jul-05 14:23N 29°45' W 095°06'0 0.0
2018-Jul-05 13:31N 29°45' W 095°06'0 0.0
2018-Jul-05 13:01N 29°45' W 095°06'0 0.0
2018-Jul-05 12:30N 29°45' W 095°06'  

Dump ship's entire track history